Time;durP1;ratioP1;P1;durP2;ratioP2;P2;SDS_P1;SDS_P2;PMS_P1;PMS_P2;Temp;Humidity;BMP_temperature;BMP_pressure;BME280_temperature;BME280_humidity;BME280_pressure;Samples;Min_cycle;Max_cycle;Signal;HPM_P1;HPM_P2
2022/03/30 00:01:10;;;;;;;40.33;17.70;;;;;;;4.00;100.00;67229.06;4968896;28;20097;-78
2022/03/30 00:03:36;;;;;;;36.28;18.27;;;;;;;4.02;100.00;67228.13;4968214;28;20644;-79
2022/03/30 00:06:01;;;;;;;36.97;19.23;;;;;;;;;;4969392;28;20118;-77
2022/03/30 00:08:27;;;;;;;35.75;18.27;;;;;;;3.95;100.00;67218.16;4968832;28;20569;-77
2022/03/30 00:10:52;;;;;;;38.25;19.90;;;;;;;3.96;100.00;67221.34;4967612;28;20828;-78
2022/03/30 00:13:17;;;;;;;40.15;18.20;;;;;;;3.84;100.00;67203.69;4967677;28;20529;-78
2022/03/30 00:15:44;;;;;;;42.35;20.15;;;;;;;3.83;100.00;67205.19;4968830;28;20718;-78
2022/03/30 00:18:09;;;;;;;41.53;21.00;;;;;;;3.81;100.00;67202.38;4966975;28;20043;-78
2022/03/30 00:20:35;;;;;;;43.75;19.88;;;;;;;3.76;100.00;67199.91;4988095;23;20112;-76
2022/03/30 00:23:00;;;;;;;41.72;20.30;;;;;;;3.77;100.00;67200.47;4985495;28;20042;-76
2022/03/30 00:25:26;;;;;;;39.55;19.77;;;;;;;3.78;100.00;67196.34;4985614;28;20038;-79
2022/03/30 00:27:51;;;;;;;39.08;18.65;;;;;;;3.75;100.00;67196.16;4986496;28;20045;-79
2022/03/30 00:30:18;;;;;;;34.42;16.30;;;;;;;3.61;100.00;67183.00;4986772;28;20085;-78
2022/03/30 00:32:44;;;;;;;43.05;20.58;;;;;;;3.48;100.00;67163.06;4988597;28;20053;-79
2022/03/30 00:35:12;;;;;;;39.28;19.20;;;;;;;3.53;100.00;67174.53;4983441;28;20038;-79
2022/03/30 00:37:38;;;;;;;39.60;19.58;;;;;;;3.58;100.00;67179.59;4983197;28;20434;-78
2022/03/30 00:40:06;;;;;;;39.65;18.98;;;;;;;3.48;100.00;67158.38;4972722;28;20070;-79
2022/03/30 00:42:31;;;;;;;43.95;21.35;;;;;;;3.50;100.00;67167.94;4967756;28;20045;-79
2022/03/30 00:44:57;;;;;;;40.10;20.25;;;;;;;3.44;100.00;67161.75;4983514;28;20086;-78
2022/03/30 00:47:24;;;;;;;38.58;18.45;;;;;;;3.35;100.00;67148.97;4985352;28;20138;-78
2022/03/30 00:49:51;;;;;;;34.08;17.05;;;;;;;3.39;100.00;67159.31;4982394;28;20138;-78
2022/03/30 00:52:17;;;;;;;42.50;21.77;;;;;;;3.39;100.00;67153.47;4985800;28;20039;-78
2022/03/30 00:54:46;;;;;;;44.67;23.60;;;;;;;3.37;100.00;67157.06;4986312;28;20085;-78
2022/03/30 00:57:14;;;;;;;42.33;22.92;;;;;;;3.33;100.00;67152.53;4995067;28;20038;-78
2022/03/30 00:59:41;;;;;;;42.08;19.73;;;;;;;3.26;100.00;67144.66;4990697;28;20049;-78
2022/03/30 01:02:07;;;;;;;42.42;21.33;;;;;;;3.34;100.00;67153.13;4984295;28;20054;-78
2022/03/30 01:04:32;;;;;;;44.15;20.45;;;;;;;3.35;100.00;67148.97;4983581;28;20401;-78
2022/03/30 01:06:58;;;;;;;40.45;18.15;;;;;;;3.28;100.00;67146.91;4984358;28;20046;-78
2022/03/30 01:09:24;;;;;;;42.67;20.48;;;;;;;3.18;100.00;67130.34;4966431;28;20050;-78
2022/03/30 01:11:51;;;;;;;39.03;20.65;;;;;;;3.14;100.00;67129.06;4985404;28;20039;-78
2022/03/30 01:14:17;;;;;;;42.33;20.40;;;;;;;3.20;100.00;67132.63;4986600;28;20045;-78
2022/03/30 01:16:42;;;;;;;44.10;21.35;;;;;;;3.21;100.00;67136.38;4984752;28;20494;-78
2022/03/30 01:19:10;;;;;;;40.80;21.67;;;;;;;3.19;100.00;67136.75;4987855;28;20053;-78
2022/03/30 01:21:37;;;;;;;42.55;23.20;;;;;;;3.19;100.00;67136.19;4987062;28;20050;-78
2022/03/30 01:24:03;;;;;;;47.10;21.60;;;;;;;3.14;100.00;67131.13;4992631;28;20101;-78
2022/03/30 01:26:29;;;;;;;43.53;21.88;;;;;;;3.06;100.00;67117.41;4992930;28;20046;-78
2022/03/30 01:28:55;;;;;;;39.08;18.17;;;;;;;3.05;100.00;67118.91;4993710;28;20515;-78
2022/03/30 01:34:05;;;;;;;35.80;19.40;;;;;;;3.06;100.00;67122.09;4996061;28;20053;-79
2022/03/30 01:36:31;;;;;;;40.60;18.02;;;;;;;3.04;100.00;67119.84;4993830;28;20065;-78
2022/03/30 01:38:56;;;;;;;36.58;18.45;;;;;;;3.00;100.00;67113.25;4993751;28;20058;-78
2022/03/30 01:41:21;;;;;;;47.45;19.95;;;;;;;2.99;100.00;67111.56;4991838;28;20046;-79
2022/03/30 01:43:47;;;;;;;48.15;25.75;;;;;;;3.03;100.00;67116.09;4993784;28;20402;-78
2022/03/30 01:46:12;;;;;;;43.40;21.42;;;;;;;2.98;100.00;67110.44;4993065;28;20038;-78
2022/03/30 01:48:37;;;;;;;46.08;19.25;;;;;;;2.90;100.00;67102.53;4996269;28;20038;-78
2022/03/30 01:51:03;;;;;;;39.15;18.98;;;;;;;2.95;100.00;67105.00;4993142;28;20053;-79
2022/03/30 01:53:28;;;;;;;42.55;20.23;;;;;;;2.92;100.00;67102.16;4993816;28;20129;-78
2022/03/30 01:55:54;;;;;;;33.75;17.67;;;;;;;2.83;100.00;67097.28;4993317;28;20043;-78
2022/03/30 01:58:19;;;;;;;39.20;16.48;;;;;;;2.87;100.00;67101.22;4993371;28;20550;-79
2022/03/30 02:00:45;;;;;;;39.95;16.70;;;;;;;2.74;100.00;67081.88;4974112;28;20049;-79
2022/03/30 02:03:12;;;;;;;33.97;17.60;;;;;;;2.70;100.00;67083.22;4993160;28;20109;-79
2022/03/30 02:05:37;;;;;;;35.42;17.67;;;;;;;2.74;100.00;67083.97;4994274;28;20042;-79
2022/03/30 02:08:03;;;;;;;35.17;16.50;;;;;;;2.66;100.00;67078.69;4994181;28;20042;-79
2022/03/30 02:10:29;;;;;;;36.92;17.35;;;;;;;2.62;100.00;67071.00;4991483;28;20038;-79
2022/03/30 02:12:55;;;;;;;31.83;16.23;;;;;;;2.57;100.00;67065.34;4993429;28;20039;-79
2022/03/30 02:15:22;;;;;;;37.05;19.55;;;;;;;2.60;100.00;67068.75;4993357;28;20515;-78
2022/03/30 02:17:48;;;;;;;40.42;17.70;;;;;;;2.58;100.00;67067.03;4992415;28;20114;-78
2022/03/30 02:20:13;;;;;;;33.60;18.52;;;;;;;2.56;100.00;67069.47;4991228;28;20069;-78
2022/03/30 02:22:39;;;;;;;35.88;17.73;;;;;;;2.53;100.00;67058.22;4993746;28;20866;-78
2022/03/30 02:25:05;;;;;;;36.20;15.77;;;;;;;2.40;100.00;67047.31;4992651;28;20093;-78
2022/03/30 02:27:30;;;;;;;41.03;17.33;;;;;;;2.25;100.00;67033.06;4986434;28;20046;-78
2022/03/30 02:29:55;;;;;;;37.60;18.02;;;;;;;2.24;100.00;67031.91;4993679;28;20042;-78
2022/03/30 02:32:21;;;;;;;33.03;16.58;;;;;;;2.26;100.00;67029.47;4974301;28;20060;-78
2022/03/30 02:34:46;;;;;;;41.33;18.55;;;;;;;2.27;100.00;67030.03;4992897;28;20050;-78
2022/03/30 02:37:12;;;;;;;37.08;16.50;;;;;;;;;;4994546;28;20038;-79
2022/03/30 02:39:38;;;;;;;41.97;17.98;;;;;;;2.20;100.00;67030.59;4993446;28;20497;-78
2022/03/30 02:42:06;;;;;;;38.65;19.52;;;;;;;2.19;100.00;67026.28;4994109;28;20106;-78
2022/03/30 02:44:32;;;;;;;36.42;18.98;;;;;;;2.08;100.00;67009.22;4999007;28;20042;-78
2022/03/30 02:46:57;;;;;;;39.78;20.60;;;;;;;2.10;100.00;67016.13;4995627;28;20042;-78
2022/03/30 02:49:24;;;;;;;39.35;20.05;;;;;;;2.08;100.00;67013.91;4991911;28;20044;-78
2022/03/30 02:51:49;;;;;;;41.45;19.80;;;;;;;1.98;100.00;66998.50;4989495;28;20553;-77
2022/03/30 02:54:15;;;;;;;43.28;20.70;;;;;;;2.03;100.00;67014.63;4990052;28;20043;-77
2022/03/30 02:56:40;;;;;;;38.85;20.38;;;;;;;1.93;100.00;66997.56;4990454;28;20054;-78
2022/03/30 02:59:06;;;;;;;39.70;17.83;;;;;;;1.98;100.00;67000.56;4990418;28;20129;-78
2022/03/30 03:01:32;;;;;;;39.42;17.92;;;;;;;1.90;100.00;66994.16;4988109;28;20053;-77
2022/03/30 03:03:57;;;;;;;39.10;19.40;;;;;;;1.91;100.00;66995.31;4989267;28;20064;-78
2022/03/30 03:06:23;;;;;;;33.80;17.27;;;;;;;1.84;100.00;66987.97;4982091;28;20047;-78
2022/03/30 03:08:49;;;;;;;39.08;19.33;;;;;;;1.89;100.00;66990.97;4977218;28;20053;-77
2022/03/30 03:11:14;;;;;;;38.15;18.80;;;;;;;1.83;100.00;66984.22;4964286;28;20046;-78
2022/03/30 03:13:39;;;;;;;46.58;19.63;;;;;;;1.74;100.00;66976.72;4974966;28;20852;-78
2022/03/30 03:16:05;;;;;;;37.10;17.42;;;;;;;1.75;100.00;66972.59;4975275;28;20039;-78
2022/03/30 03:18:30;;;;;;;36.28;19.27;;;;;;;1.70;100.00;66972.22;4975938;28;20100;-78
2022/03/30 03:20:56;;;;;;;34.60;17.77;;;;;;;1.59;100.00;66960.41;4971791;28;20054;-78
2022/03/30 03:23:21;;;;;;;50.72;21.02;;;;;;;1.52;100.00;66947.81;4974663;28;20050;-77
2022/03/30 03:25:47;;;;;;;42.78;19.17;;;;;;;1.51;100.00;66954.00;4973657;28;20042;-77
2022/03/30 03:28:13;;;;;;;41.72;19.90;;;;;;;1.53;100.00;66951.56;4974021;28;20046;-77
2022/03/30 03:30:40;;;;;;;34.58;16.58;;;;;;;1.54;100.00;66960.56;4975339;28;20042;-78
2022/03/30 03:33:06;;;;;;;36.47;18.42;;;;;;;1.52;100.00;66949.88;4975195;28;20106;-78
2022/03/30 03:35:32;;;;;;;39.47;17.27;;;;;;;1.42;100.00;66941.81;4976757;28;20039;-78
2022/03/30 03:37:59;;;;;;;38.17;19.83;;;;;;;1.50;100.00;66945.03;4978385;28;20157;-78
2022/03/30 03:40:25;;;;;;;47.08;20.73;;;;;;;1.48;100.00;66948.00;4974178;28;20038;-78
2022/03/30 03:42:51;;;;;;;41.90;20.13;;;;;;;1.48;100.00;66942.75;4980070;28;20049;-78
2022/03/30 03:45:17;;;;;;;37.88;17.05;;;;;;;1.43;100.00;66937.69;4974983;28;20042;-77
2022/03/30 03:47:42;;;;;;;36.90;20.05;;;;;;;1.49;100.00;66949.69;4975130;28;20444;-77
2022/03/30 03:50:09;;;;;;;42.10;20.88;;;;;;;1.56;100.00;66954.41;4971173;28;20047;-77
2022/03/30 03:52:35;;;;;;;42.95;20.42;;;;;;;1.57;100.00;66958.69;4955740;28;20465;-77
2022/03/30 03:55:00;;;;;;;41.38;20.35;;;;;;;1.57;100.00;66955.50;4975521;28;20043;-76
2022/03/30 03:57:26;;;;;;;44.78;22.00;;;;;;;1.56;100.00;66954.94;4972088;28;20105;-77
2022/03/30 03:59:51;;;;;;;41.72;20.02;;;;;;;1.53;100.00;66951.56;4973096;28;20133;-77
2022/03/30 04:02:17;;;;;;;42.08;20.20;;;;;;;1.55;100.00;66953.84;4979861;28;20189;-76
2022/03/30 04:04:44;;;;;;;43.05;21.50;;;;;;;1.54;100.00;66949.50;4983441;28;20400;-77
2022/03/30 04:07:09;;;;;;;43.58;21.48;;;;;;;1.48;100.00;66951.19;4982096;28;20077;-76
2022/03/30 04:09:35;;;;;;;45.85;21.35;;;;;;;1.46;100.00;66946.31;4965047;28;20460;-76
2022/03/30 04:12:00;;;;;;;33.22;16.45;;;;;;;1.34;100.00;66935.44;4986540;28;20509;-76
2022/03/30 04:14:25;;;;;;;41.45;19.77;;;;;;;1.32;100.00;66928.50;4957183;28;20093;-76
2022/03/30 04:16:50;;;;;;;43.13;20.88;;;;;;;1.35;100.00;66928.69;4972447;28;20129;-76
2022/03/30 04:19:16;;;;;;;44.63;20.92;;;;;;;1.35;100.00;66934.50;4971151;28;20069;-77
2022/03/30 04:21:42;;;;;;;44.97;20.63;;;;;;;1.30;100.00;66928.31;4980255;28;20136;-77
2022/03/30 04:24:08;;;;;;;45.95;23.27;;;;;;;1.31;100.00;66924.19;4978580;28;20050;-77
2022/03/30 04:26:33;;;;;;;41.42;19.98;;;;;;;1.22;100.00;66914.06;4981436;28;20039;-78
2022/03/30 04:28:59;;;;;;;49.28;21.98;;;;;;;1.22;100.00;66919.31;4961064;28;20133;-77
2022/03/30 04:31:24;;;;;;;49.00;22.95;;;;;;;1.24;100.00;66918.94;4975371;28;20138;-77
2022/03/30 04:33:50;;;;;;;39.83;19.08;;;;;;;1.19;100.00;66915.91;4979523;28;20058;-77
2022/03/30 04:36:15;;;;;;;40.85;19.60;;;;;;;1.09;100.00;66905.22;4985783;28;20050;-77
2022/03/30 04:38:40;;;;;;;44.55;19.40;;;;;;;1.02;100.00;66897.91;4983230;28;20046;-77
2022/03/30 04:41:06;;;;;;;45.65;20.40;;;;;;;1.02;100.00;66897.34;4977218;28;20394;-77
2022/03/30 04:43:31;;;;;;;39.97;19.05;;;;;;;1.10;100.00;66906.91;4980152;28;20547;-76
2022/03/30 04:45:56;;;;;;;43.13;21.13;;;;;;;1.02;100.00;66892.66;4986144;28;20054;-80
2022/03/30 04:48:23;;;;;;;45.00;22.17;;;;;;;1.08;100.00;66907.28;4987952;28;20051;-81
2022/03/30 04:50:51;;;;;;;39.75;17.88;;;;;;;1.07;100.00;66903.53;4986122;28;20049;-80
2022/03/30 04:53:17;;;;;;;44.17;20.40;;;;;;;1.02;100.00;66899.97;4983126;28;20046;-77
2022/03/30 04:55:42;;;;;;;45.55;20.60;;;;;;;1.08;100.00;66904.66;4982345;28;20031;-80
2022/03/30 04:58:08;;;;;;;45.83;20.75;;;;;;;1.01;100.00;66896.78;4986413;28;20038;-77
2022/03/30 05:00:33;;;;;;;43.60;19.42;;;;;;;0.95;100.00;66894.69;4982327;28;20117;-76
2022/03/30 05:02:59;;;;;;;41.13;17.77;;;;;;;0.88;100.00;66882.16;4982938;28;20046;-80
2022/03/30 05:05:24;;;;;;;43.42;19.10;;;;;;;0.83;100.00;66871.28;4969485;28;20048;-77
2022/03/30 05:07:50;;;;;;;43.22;20.20;;;;;;;0.84;100.00;66875.03;4986026;28;20039;-79
2022/03/30 05:10:15;;;;;;;44.97;18.75;;;;;;;0.83;100.00;66876.53;4977905;28;20038;-77
2022/03/30 05:12:41;;;;;;;40.70;18.25;;;;;;;0.73;100.00;66862.66;4982782;28;20061;-79
2022/03/30 05:15:09;;;;;;;44.35;21.33;;;;;;;0.89;100.00;66881.22;4983338;28;20041;-79
2022/03/30 05:17:35;;;;;;;42.85;20.65;;;;;;;0.94;100.00;66890.97;4986480;28;20084;-82
2022/03/30 05:20:01;;;;;;;40.60;20.42;;;;;;;0.93;100.00;66887.22;4967621;28;20129;-77
2022/03/30 05:22:26;;;;;;;44.00;21.42;;;;;;;0.89;100.00;66883.28;4984091;28;20047;-79
2022/03/30 05:24:52;;;;;;;48.95;22.77;;;;;;;0.87;100.00;66881.03;4985574;28;20042;-77
2022/03/30 05:27:17;;;;;;;43.05;20.92;;;;;;;0.76;100.00;66863.41;4976353;28;20117;-78
2022/03/30 05:29:42;;;;;;;40.95;18.42;;;;;;;0.68;100.00;66855.53;4978999;28;20073;-78
2022/03/30 05:32:08;;;;;;;40.70;20.65;;;;;;;0.68;100.00;66860.75;4987301;28;20050;-77
2022/03/30 05:34:33;;;;;;;48.63;22.80;;;;;;;0.70;100.00;66862.47;4979781;28;20061;-78
2022/03/30 05:36:59;;;;;;;52.58;28.15;;;;;;;0.73;100.00;66867.91;4984510;28;20138;-77
2022/03/30 05:39:25;;;;;;;43.30;19.52;;;;;;;0.61;100.00;66852.91;4982450;28;20393;-77
2022/03/30 05:41:51;;;;;;;44.85;24.35;;;;;;;0.75;100.00;66867.50;4985032;28;20117;-78
2022/03/30 05:44:16;;;;;;;50.53;22.52;;;;;;;0.82;100.00;66872.78;4980152;28;20042;-77
2022/03/30 05:46:42;;;;;;;50.30;21.55;;;;;;;0.78;100.00;66868.28;4982680;28;20054;-78
2022/03/30 05:49:07;;;;;;;48.80;23.27;;;;;;;0.81;100.00;66874.84;4978847;28;20052;-78
2022/03/30 05:51:33;;;;;;;48.15;21.92;;;;;;;0.80;100.00;66873.69;4976690;28;20128;-78
2022/03/30 05:53:58;;;;;;;47.85;24.33;;;;;;;0.84;100.00;66875.59;4979707;28;20085;-78
2022/03/30 05:57:10;;;;;;;46.08;21.63;;;;;;;0.74;100.00;66866.97;4960644;28;20050;-78
2022/03/30 05:59:11;;;;;;;55.28;24.85;;;;;;;0.73;100.00;66865.28;4964547;28;20050;-79
2022/03/30 06:01:37;;;;;;;56.05;24.50;;;;;;;0.79;100.00;66872.59;4983113;28;20034;-80
2022/03/30 06:04:02;;;;;;;51.53;22.23;;;;;;;0.77;100.00;66872.38;4986228;28;20057;-78
2022/03/30 06:06:28;;;;;;;46.58;21.00;;;;;;;0.78;100.00;66871.47;4982339;28;20035;-80
2022/03/30 06:08:53;;;;;;;48.40;23.50;;;;;;;0.85;100.00;66876.16;4964226;28;20120;-77
2022/03/30 06:11:19;;;;;;;58.10;27.25;;;;;;;0.87;100.00;66881.59;4983847;28;20178;-79
2022/03/30 06:13:44;;;;;;;52.65;26.15;;;;;;;1.04;100.00;66897.53;4987013;28;20132;-82
2022/03/30 06:16:10;;;;;;;49.38;23.75;;;;;;;1.01;100.00;66896.78;4987270;28;20433;-79
2022/03/30 06:18:35;;;;;;;50.63;24.42;;;;;;;1.11;100.00;66907.47;4966971;28;20481;-81
2022/03/30 06:21:01;;;;;;;58.33;26.88;;;;;;;1.19;100.00;66919.09;4999957;23;20058;-85
2022/03/30 06:23:27;;;;;;;56.30;26.27;;;;;;;1.30;100.00;66923.06;5014237;28;20046;-86
2022/03/30 06:25:53;;;;;;;56.92;26.98;;;;;;;1.41;100.00;66935.44;5009689;28;20058;-84
2022/03/30 06:28:22;;;;;;;55.72;28.80;;;;;;;1.47;100.00;66946.88;5008530;28;20053;-85
2022/03/30 06:30:48;;;;;;;54.88;29.95;;;;;;;1.58;100.00;66959.25;5012163;28;20105;-83
2022/03/30 06:33:13;;;;;;;62.75;31.60;;;;;;;1.65;100.00;66966.59;5027926;28;20045;-85
2022/03/30 06:35:39;;;;;;;59.45;32.40;;;;;;;1.76;100.00;66978.97;5028179;28;20048;-84
2022/03/30 06:38:05;;;;;;;52.03;24.63;;;;;;;1.78;100.00;66976.56;5025276;28;20038;-84
2022/03/30 06:40:33;;;;;;;56.58;27.42;;;;;;;1.85;100.00;66988.56;5018667;28;20065;-84
2022/03/30 06:43:00;;;;;;;61.03;31.73;;;;;;;1.98;100.00;66997.94;5020265;28;20045;-84
2022/03/30 06:45:26;;;;;;;58.75;29.88;;;;;;;2.08;100.00;67009.22;5030274;28;20041;-83
2022/03/30 06:47:52;;;;;;;63.55;28.95;;;;;;;2.16;100.00;67023.47;5027288;28;20048;-85
2022/03/30 06:50:19;;;;;;;55.55;28.27;;;;;;;2.23;100.00;67028.16;5026577;28;20041;-84
2022/03/30 06:52:45;;;;;;;53.83;29.48;;;;;;;2.35;100.00;67038.50;5031668;28;20052;-84
2022/03/30 06:55:12;;;;;;;55.88;30.38;;;;;;;2.42;100.00;67051.66;5026876;28;20037;-85
2022/03/30 06:57:38;;;;;;;51.63;31.02;;;;;;;2.52;100.00;67062.34;5027516;28;20046;-85
2022/03/30 07:00:05;;;;;;;53.28;29.25;;;;;;;2.58;100.00;67063.84;5014199;28;20048;-86
2022/03/30 07:02:30;;;;;;;49.20;29.40;;;;;;;2.64;100.00;67073.25;5032138;28;20042;-82
2022/03/30 07:04:55;;;;;;;51.10;28.33;;;;;;;2.73;100.00;67080.75;5010198;28;20066;-83
2022/03/30 07:10:14;;;;;;;44.65;22.67;;;;;;;2.96;100.00;67105.56;4971892;28;20488;-84
2022/03/30 07:12:40;;;;;;;46.45;25.33;;;;;;;3.07;100.00;67123.22;4969168;28;20059;-84
2022/03/30 07:15:06;;;;;;;47.00;25.88;;;;;;;3.15;100.00;67134.88;4958446;28;20522;-84
2022/03/30 07:17:33;;;;;;;45.25;25.45;;;;;;;3.29;100.00;67148.03;4953339;28;20188;-85
2022/03/30 07:19:58;;;;;;;48.55;25.10;;;;;;;3.47;100.00;67167.19;4968580;28;20047;-85
2022/03/30 07:22:23;;;;;;;47.80;24.48;;;;;;;3.57;100.00;67173.22;4971983;28;20058;-86
2022/03/30 07:24:49;;;;;;;45.53;22.65;;;;;;;3.72;100.00;67194.84;4973067;28;20058;-84
2022/03/30 07:27:16;;;;;;;44.17;24.63;;;;;;;3.78;100.00;67202.16;4973380;28;20082;-86
2022/03/30 07:29:41;;;;;;;40.63;23.25;;;;;;;3.88;100.00;67207.63;4970264;28;20110;-85
2022/03/30 07:32:07;;;;;;;37.17;18.40;;;;;;;4.00;100.00;67221.19;4970015;28;20043;-84
2022/03/30 07:34:33;;;;;;;42.30;23.00;;;;;;;4.07;100.00;67233.78;4968322;28;20084;-83
2022/03/30 07:36:59;;;;;;;35.50;19.10;;;;;;;4.21;100.00;67243.75;4977054;28;20070;-85
2022/03/30 07:39:25;;;;;;;37.35;20.48;;;;;;;4.32;100.00;67255.59;5010630;28;20416;-84
2022/03/30 07:41:50;;;;;;;35.50;20.63;;;;;;;4.41;100.00;67266.31;5023704;28;20045;-85
2022/03/30 07:44:15;;;;;;;37.22;22.80;;;;;;;4.48;100.00;67276.84;5028042;28;20071;-85
2022/03/30 07:46:41;;;;;;;37.00;21.45;;;;;;;4.56;100.00;67282.69;5029806;28;20087;-86
2022/03/30 07:49:06;;;;;;;39.38;19.60;;;;;;;4.64;100.00;67291.72;5029390;28;20467;-83
2022/03/30 07:51:32;;;;;;;35.13;20.42;;;;;;;4.69;100.00;67296.78;5025330;28;20080;-84
2022/03/30 07:53:57;;;;;;;33.42;19.50;;;;;;;4.70;100.00;67305.84;5023247;28;20049;-85
2022/03/30 07:56:23;;;;;;;33.58;18.73;;;;;;;4.79;100.00;67308.09;5027947;28;20095;-85
2022/03/30 07:58:49;;;;;;;34.72;17.48;;;;;;;4.83;100.00;67312.59;5030187;28;20041;-85
2022/03/30 08:01:19;;;;;;;34.28;18.00;;;;;;;4.91;100.00;67323.72;5027909;28;20044;-86
2022/03/30 08:03:44;;;;;;;26.27;12.32;;;;;;;5.04;100.00;67340.47;5023576;28;20045;-86
2022/03/30 08:06:12;;;;;;;30.10;16.33;;;;;;;5.20;100.00;67353.81;5027322;28;20113;-87
2022/03/30 08:08:38;;;;;;;29.10;14.63;;;;;;;5.26;98.44;67359.47;5027990;28;20061;-86
2022/03/30 08:11:03;;;;;;;29.08;11.95;;;;;;;;;;5027234;28;20050;-87
2022/03/30 08:13:28;;;;;;;32.53;16.87;;;;;;;5.56;96.91;67393.38;5024933;28;20042;-85
2022/03/30 08:15:54;;;;;;;32.70;17.02;;;;;;;5.58;95.56;67395.66;5029186;28;20287;-84
2022/03/30 08:18:19;;;;;;;28.63;14.60;;;;;;;5.60;95.25;67397.88;5022640;28;20048;-84
2022/03/30 08:23:28;;;;;;;18.23;10.77;;;;;;;5.75;93.92;67414.28;5028751;28;20072;-85
2022/03/30 08:25:54;;;;;;;23.02;11.52;;;;;;;5.94;93.18;67434.66;5015217;28;20045;-86
2022/03/30 08:28:19;;;;;;;23.73;13.27;;;;;;;5.98;91.09;67444.44;5030223;28;20053;-85
2022/03/30 08:30:45;;;;;;;25.33;12.15;;;;;;;6.04;91.39;67451.22;5025537;28;20052;-87
2022/03/30 08:33:10;;;;;;;25.35;11.73;;;;;;;6.20;90.46;67463.47;5033307;28;20063;-85
2022/03/30 08:35:36;;;;;;;27.23;13.23;;;;;;;6.34;90.78;67484.59;5030840;28;20090;-84
2022/03/30 08:38:02;;;;;;;24.70;12.18;;;;;;;6.57;90.61;67504.19;5028282;28;20041;-85
2022/03/30 08:40:28;;;;;;;21.65;11.10;;;;;;;;;;5012832;28;20101;-82
2022/03/30 08:42:53;;;;;;;19.75;11.57;;;;;;;6.51;87.29;67501.19;5015057;28;20072;-86
2022/03/30 08:45:19;;;;;;;22.17;11.05;;;;;;;6.68;88.51;67516.63;5028911;28;20041;-86
2022/03/30 08:47:46;;;;;;;20.95;11.30;;;;;;;6.85;88.04;67537.94;5012589;28;20060;-86
2022/03/30 08:50:12;;;;;;;25.10;12.18;;;;;;;;;;5033660;28;20109;-85
2022/03/30 08:52:37;;;;;;;26.73;12.60;;;;;;;6.91;86.77;67545.28;5034933;28;20542;-87
2022/03/30 08:55:03;;;;;;;21.77;9.60;;;;;;;6.81;86.72;67526.03;5037225;28;20044;-86
2022/03/30 08:57:29;;;;;;;24.65;13.30;;;;;;;;;;5034297;28;20056;-85
2022/03/30 08:59:59;;;;;;;19.27;12.07;;;;;;;6.89;86.91;67540.38;5035535;28;20054;-86
2022/03/30 09:02:42;;;;;;;20.95;13.30;;;;;;;6.88;87.04;67541.91;5032365;28;20049;-86
2022/03/30 09:05:25;;;;;;;25.90;16.50;;;;;;;6.94;86.80;67548.69;5030670;28;20041;-87
2022/03/30 09:08:05;;;;;;;24.23;14.75;;;;;;;;;;5031654;28;20111;-85
2022/03/30 09:10:31;;;;;;;25.67;14.23;;;;;;;6.88;87.52;67544.53;5028241;28;20041;-86
2022/03/30 09:12:57;;;;;;;29.27;15.93;;;;;;;;;;5032195;28;20057;-84
2022/03/30 09:15:23;;;;;;;21.02;12.30;;;;;;;6.97;86.69;67552.06;5030356;28;20064;-84
2022/03/30 09:17:49;;;;;;;27.05;14.32;;;;;;;;;;5010224;28;20069;-85
2022/03/30 09:20:19;;;;;;;24.27;14.88;;;;;;;;;;5028050;28;20049;-86
2022/03/30 09:22:47;;;;;;;23.50;14.52;;;;;;;7.20;86.77;67574.34;5028188;28;20050;-87
2022/03/30 09:25:14;;;;;;;22.67;15.73;;;;;;;7.18;85.78;67575.28;5022024;28;20053;-84
2022/03/30 09:27:41;;;;;;;22.30;12.77;;;;;;;7.13;86.06;67566.41;5022849;28;20063;-85
2022/03/30 09:30:09;;;;;;;19.35;10.93;;;;;;;7.15;85.92;67569.22;5042999;23;20046;-87
2022/03/30 09:32:35;;;;;;;23.63;12.55;;;;;;;7.12;86.10;67559.97;4999085;28;20507;-84
2022/03/30 09:35:00;;;;;;;21.48;11.25;;;;;;;7.20;86.21;67574.34;5001012;28;20053;-87
2022/03/30 09:37:26;;;;;;;17.55;11.45;;;;;;;7.35;85.01;67590.72;5019093;28;20065;-85
2022/03/30 09:39:51;;;;;;;19.13;9.77;;;;;;;;;;4993523;28;20051;-86
2022/03/30 09:42:18;;;;;;;15.98;9.35;;;;;;;7.72;85.48;67631.50;4999973;28;20069;-86
2022/03/30 09:44:54;;;;;;;13.32;7.13;;;;;;;7.93;82.18;67654.69;4999284;28;20038;-85
2022/03/30 09:47:23;;;;;;;13.23;8.38;;;;;;;;;;4986820;28;20065;-86
2022/03/30 09:49:50;;;;;;;15.10;7.20;;;;;;;7.91;80.99;67652.97;5006347;28;20053;-88
2022/03/30 09:52:29;;;;;;;11.35;7.45;;;;;;;8.14;79.89;67678.47;5014464;28;20046;-88
2022/03/30 09:54:59;;;;;;;10.73;5.20;;;;;;;;;;4992037;28;20046;-85
2022/03/30 09:57:26;;;;;;;7.50;4.10;;;;;;;8.48;78.52;67715.88;4992720;28;20181;-86
2022/03/30 09:59:55;;;;;;;10.60;5.65;;;;;;;;;;5013227;28;20050;-86
2022/03/30 10:02:20;;;;;;;12.60;7.25;;;;;;;8.50;76.83;67718.13;5013430;28;20069;-85
2022/03/30 10:04:46;;;;;;;10.38;6.35;;;;;;;8.42;76.76;67709.06;4992267;28;20043;-85
2022/03/30 10:07:12;;;;;;;11.73;7.93;;;;;;;8.46;77.39;67713.59;4997522;28;20425;-86
2022/03/30 10:09:39;;;;;;;10.07;7.28;;;;;;;;;;4993066;28;20042;-84
2022/03/30 10:12:05;;;;;;;10.38;5.95;;;;;;;8.46;78.04;67714.19;4968840;28;20042;-84
2022/03/30 10:14:32;;;;;;;8.10;4.65;;;;;;;8.74;77.68;67744.75;4991800;28;20132;-84
2022/03/30 10:16:57;;;;;;;9.95;5.22;;;;;;;;;;4992015;28;20074;-85
2022/03/30 10:19:23;;;;;;;9.32;6.05;;;;;;;8.81;76.30;67755.34;4998615;28;20070;-84
2022/03/30 10:22:02;;;;;;;12.98;6.45;;;;;;;9.02;75.79;67775.94;4974252;28;20390;-86
2022/03/30 10:24:30;;;;;;;8.15;4.75;;;;;;;;;;4984918;28;20508;-84
2022/03/30 10:27:09;;;;;;;7.07;4.03;;;;;;;9.10;75.10;67785.00;4991094;28;20530;-84
2022/03/30 10:29:35;;;;;;;14.60;8.05;;;;;;;;;;4972990;28;20058;-85
2022/03/30 10:32:13;;;;;;;11.55;8.18;;;;;;;8.91;73.86;67763.47;4990526;28;20049;-84
2022/03/30 10:34:40;;;;;;;18.17;11.02;;;;;;;;;;4990821;28;20034;-84
2022/03/30 10:37:09;;;;;;;18.60;11.82;;;;;;;8.58;73.60;67722.47;4992110;28;20047;-85
2022/03/30 10:39:52;;;;;;;8.85;6.18;;;;;;;8.49;75.53;67717.00;4990662;28;20035;-85
2022/03/30 10:42:17;;;;;;;12.77;8.55;;;;;;;;;;4973973;28;20485;-84
2022/03/30 10:44:47;;;;;;;12.18;6.18;;;;;;;8.65;75.81;67735.13;4992358;28;20056;-87
2022/03/30 10:47:17;;;;;;;9.57;6.40;;;;;;;;;;4996780;28;20046;-84
2022/03/30 10:49:54;;;;;;;9.70;5.90;;;;;;;8.99;74.85;67772.53;4991511;28;20062;-85
2022/03/30 10:52:38;;;;;;;7.70;5.05;;;;;;;9.39;75.05;67812.00;4991472;28;20049;-84
2022/03/30 10:55:29;;;;;;;11.88;5.90;;;;;;;9.38;74.20;67815.59;4973224;28;20046;-85
2022/03/30 10:58:03;;;;;;;9.15;5.65;;;;;;;9.51;73.09;67832.44;4991068;28;20468;-84
2022/03/30 11:00:34;;;;;;;8.90;4.53;;;;;;;9.51;73.33;67833.00;4990851;28;20125;-84
2022/03/30 11:03:11;;;;;;;10.27;5.82;;;;;;;9.47;74.27;67825.81;4990447;28;20047;-85
2022/03/30 11:05:37;;;;;;;10.43;7.40;;;;;;;9.37;73.38;67809.72;4990125;28;20431;-84
2022/03/30 11:08:06;;;;;;;11.55;6.93;;;;;;;;;;4989842;28;20042;-84
2022/03/30 11:10:47;;;;;;;10.73;6.60;;;;;;;9.26;74.53;67803.13;4981444;28;20041;-85
2022/03/30 11:13:12;;;;;;;13.00;6.80;;;;;;;9.36;73.81;67808.03;4979907;28;20077;-85
2022/03/30 11:15:56;;;;;;;13.60;8.32;;;;;;;9.10;74.94;67787.09;4962013;28;20132;-85
2022/03/30 11:18:21;;;;;;;18.60;8.20;;;;;;;;;;4980448;28;20046;-87
2022/03/30 11:21:05;;;;;;;14.15;8.88;;;;;;;;;;4983351;28;20057;-86
2022/03/30 11:23:31;;;;;;;14.40;8.85;;;;;;;8.92;77.08;67759.84;4978165;28;20092;-84
2022/03/30 11:25:56;;;;;;;16.83;10.82;;;;;;;8.98;76.63;67766.66;4976684;28;20050;-85
2022/03/30 11:28:34;;;;;;;15.43;8.95;;;;;;;;;;4951866;28;20042;-83
2022/03/30 11:31:01;;;;;;;14.05;8.43;;;;;;;8.90;74.35;67762.34;4980526;28;20050;-84
2022/03/30 11:33:28;;;;;;;11.77;8.13;;;;;;;8.93;75.36;67765.72;4976268;28;20109;-85
2022/03/30 11:35:54;;;;;;;17.48;8.40;;;;;;;8.96;74.30;67769.69;4974222;28;20038;-84
2022/03/30 11:38:32;;;;;;;13.45;8.60;;;;;;;8.93;74.66;67768.94;4976016;28;20061;-85
2022/03/30 11:41:01;;;;;;;14.20;7.20;;;;;;;;;;4997396;22;20046;-84